sensor_id;sensor_type;location;lat;lon;timestamp;P1;durP1;ratioP1;P2;durP2;ratioP2
15216;SDS011;7711;46.634;14.318;2023-04-30T00:00:26;6.80;;;4.70;;
15216;SDS011;7711;46.634;14.318;2023-04-30T00:02:53;5.87;;;5.03;;
15216;SDS011;7711;46.634;14.318;2023-04-30T00:05:20;6.53;;;5.20;;
15216;SDS011;7711;46.634;14.318;2023-04-30T00:07:49;7.07;;;5.27;;
15216;SDS011;7711;46.634;14.318;2023-04-30T00:10:16;6.73;;;5.23;;
15216;SDS011;7711;46.634;14.318;2023-04-30T00:12:43;5.67;;;5.10;;
15216;SDS011;7711;46.634;14.318;2023-04-30T00:15:10;6.47;;;5.57;;
15216;SDS011;7711;46.634;14.318;2023-04-30T00:17:37;6.00;;;5.10;;
15216;SDS011;7711;46.634;14.318;2023-04-30T00:20:05;6.30;;;5.17;;
15216;SDS011;7711;46.634;14.318;2023-04-30T00:22:32;9.37;;;5.37;;
15216;SDS011;7711;46.634;14.318;2023-04-30T00:25:01;7.53;;;5.10;;
15216;SDS011;7711;46.634;14.318;2023-04-30T00:27:28;8.30;;;5.20;;
15216;SDS011;7711;46.634;14.318;2023-04-30T00:29:55;6.17;;;4.93;;
15216;SDS011;7711;46.634;14.318;2023-04-30T00:32:22;5.93;;;4.40;;
15216;SDS011;7711;46.634;14.318;2023-04-30T00:34:49;8.17;;;5.20;;
15216;SDS011;7711;46.634;14.318;2023-04-30T00:37:16;5.80;;;4.80;;
15216;SDS011;7711;46.634;14.318;2023-04-30T00:39:43;5.50;;;4.93;;
15216;SDS011;7711;46.634;14.318;2023-04-30T00:42:12;5.53;;;4.93;;
15216;SDS011;7711;46.634;14.318;2023-04-30T00:44:39;7.77;;;4.83;;
15216;SDS011;7711;46.634;14.318;2023-04-30T00:47:06;5.00;;;4.50;;
15216;SDS011;7711;46.634;14.318;2023-04-30T00:49:33;5.10;;;4.57;;
15216;SDS011;7711;46.634;14.318;2023-04-30T00:52:00;5.37;;;4.40;;
15216;SDS011;7711;46.634;14.318;2023-04-30T00:54:27;4.57;;;4.13;;
15216;SDS011;7711;46.634;14.318;2023-04-30T00:56:54;4.60;;;4.20;;
15216;SDS011;7711;46.634;14.318;2023-04-30T00:59:22;6.63;;;4.20;;
15216;SDS011;7711;46.634;14.318;2023-04-30T01:01:50;4.67;;;4.27;;
15216;SDS011;7711;46.634;14.318;2023-04-30T01:04:17;4.63;;;3.93;;
15216;SDS011;7711;46.634;14.318;2023-04-30T01:06:45;4.33;;;3.93;;
15216;SDS011;7711;46.634;14.318;2023-04-30T01:09:12;4.37;;;3.90;;
15216;SDS011;7711;46.634;14.318;2023-04-30T01:11:42;6.27;;;4.10;;
15216;SDS011;7711;46.634;14.318;2023-04-30T01:14:16;4.43;;;4.00;;
15216;SDS011;7711;46.634;14.318;2023-04-30T01:16:53;4.27;;;3.87;;
15216;SDS011;7711;46.634;14.318;2023-04-30T01:19:28;5.83;;;4.33;;
15216;SDS011;7711;46.634;14.318;2023-04-30T01:22:07;4.10;;;3.70;;
15216;SDS011;7711;46.634;14.318;2023-04-30T01:24:52;4.97;;;3.97;;
15216;SDS011;7711;46.634;14.318;2023-04-30T01:27:53;5.40;;;4.07;;
15216;SDS011;7711;46.634;14.318;2023-04-30T01:30:28;5.10;;;3.93;;
15216;SDS011;7711;46.634;14.318;2023-04-30T01:32:56;4.77;;;4.03;;
15216;SDS011;7711;46.634;14.318;2023-04-30T01:35:26;4.93;;;4.23;;
15216;SDS011;7711;46.634;14.318;2023-04-30T01:38:08;4.70;;;4.07;;
15216;SDS011;7711;46.634;14.318;2023-04-30T01:40:43;7.50;;;3.80;;
15216;SDS011;7711;46.634;14.318;2023-04-30T01:43:19;5.60;;;3.93;;
15216;SDS011;7711;46.634;14.318;2023-04-30T01:45:56;5.90;;;3.80;;
15216;SDS011;7711;46.634;14.318;2023-04-30T01:48:31;4.80;;;4.13;;
15216;SDS011;7711;46.634;14.318;2023-04-30T01:51:07;4.83;;;3.90;;
15216;SDS011;7711;46.634;14.318;2023-04-30T01:53:39;6.77;;;4.17;;
15216;SDS011;7711;46.634;14.318;2023-04-30T01:56:09;4.63;;;3.50;;
15216;SDS011;7711;46.634;14.318;2023-04-30T01:58:43;4.10;;;3.70;;
15216;SDS011;7711;46.634;14.318;2023-04-30T02:01:24;4.13;;;3.73;;
15216;SDS011;7711;46.634;14.318;2023-04-30T02:03:52;4.13;;;3.60;;
15216;SDS011;7711;46.634;14.318;2023-04-30T02:06:19;5.47;;;3.60;;
15216;SDS011;7711;46.634;14.318;2023-04-30T02:08:46;4.30;;;3.90;;
15216;SDS011;7711;46.634;14.318;2023-04-30T02:11:13;4.57;;;4.10;;
15216;SDS011;7711;46.634;14.318;2023-04-30T02:13:40;4.97;;;4.30;;
15216;SDS011;7711;46.634;14.318;2023-04-30T02:16:08;4.17;;;3.77;;
15216;SDS011;7711;46.634;14.318;2023-04-30T02:18:35;4.50;;;3.73;;
15216;SDS011;7711;46.634;14.318;2023-04-30T02:21:03;5.87;;;4.00;;
15216;SDS011;7711;46.634;14.318;2023-04-30T02:23:30;4.83;;;4.13;;
15216;SDS011;7711;46.634;14.318;2023-04-30T02:25:57;5.17;;;3.80;;
15216;SDS011;7711;46.634;14.318;2023-04-30T02:28:23;6.40;;;3.57;;
15216;SDS011;7711;46.634;14.318;2023-04-30T02:30:50;4.43;;;3.70;;
15216;SDS011;7711;46.634;14.318;2023-04-30T02:33:19;4.10;;;3.80;;
15216;SDS011;7711;46.634;14.318;2023-04-30T02:35:46;5.27;;;4.20;;
15216;SDS011;7711;46.634;14.318;2023-04-30T02:38:13;6.97;;;4.03;;
15216;SDS011;7711;46.634;14.318;2023-04-30T02:40:40;4.30;;;3.90;;
15216;SDS011;7711;46.634;14.318;2023-04-30T02:43:07;4.57;;;3.90;;
15216;SDS011;7711;46.634;14.318;2023-04-30T02:45:34;5.07;;;4.00;;
15216;SDS011;7711;46.634;14.318;2023-04-30T02:48:01;5.70;;;3.90;;
15216;SDS011;7711;46.634;14.318;2023-04-30T02:50:29;4.63;;;4.13;;
15216;SDS011;7711;46.634;14.318;2023-04-30T02:52:56;5.17;;;3.90;;
15216;SDS011;7711;46.634;14.318;2023-04-30T02:55:24;4.03;;;3.67;;
15216;SDS011;7711;46.634;14.318;2023-04-30T02:57:51;5.13;;;3.80;;
15216;SDS011;7711;46.634;14.318;2023-04-30T03:00:18;4.47;;;3.60;;
15216;SDS011;7711;46.634;14.318;2023-04-30T03:02:45;5.40;;;3.40;;
15216;SDS011;7711;46.634;14.318;2023-04-30T03:05:12;4.27;;;3.50;;
15216;SDS011;7711;46.634;14.318;2023-04-30T03:07:41;4.20;;;3.80;;
15216;SDS011;7711;46.634;14.318;2023-04-30T03:10:08;3.80;;;3.40;;
15216;SDS011;7711;46.634;14.318;2023-04-30T03:12:35;5.97;;;4.00;;
15216;SDS011;7711;46.634;14.318;2023-04-30T03:15:03;4.60;;;3.43;;
15216;SDS011;7711;46.634;14.318;2023-04-30T03:17:31;4.63;;;4.13;;
15216;SDS011;7711;46.634;14.318;2023-04-30T03:19:58;3.97;;;3.60;;
15216;SDS011;7711;46.634;14.318;2023-04-30T03:22:25;6.77;;;3.77;;
15216;SDS011;7711;46.634;14.318;2023-04-30T03:24:53;4.73;;;3.80;;
15216;SDS011;7711;46.634;14.318;2023-04-30T03:27:20;4.63;;;4.23;;
15216;SDS011;7711;46.634;14.318;2023-04-30T03:29:47;5.47;;;4.70;;
15216;SDS011;7711;46.634;14.318;2023-04-30T03:32:14;6.00;;;4.60;;
15216;SDS011;7711;46.634;14.318;2023-04-30T03:34:41;5.43;;;3.97;;
15216;SDS011;7711;46.634;14.318;2023-04-30T03:37:08;4.77;;;4.10;;
15216;SDS011;7711;46.634;14.318;2023-04-30T03:39:35;5.60;;;4.10;;
15216;SDS011;7711;46.634;14.318;2023-04-30T03:42:03;4.20;;;3.80;;
15216;SDS011;7711;46.634;14.318;2023-04-30T03:44:30;4.60;;;3.87;;
15216;SDS011;7711;46.634;14.318;2023-04-30T03:46:57;4.80;;;4.27;;
15216;SDS011;7711;46.634;14.318;2023-04-30T03:49:24;5.80;;;4.00;;
15216;SDS011;7711;46.634;14.318;2023-04-30T03:51:51;4.60;;;4.07;;
15216;SDS011;7711;46.634;14.318;2023-04-30T03:54:18;4.60;;;4.20;;
15216;SDS011;7711;46.634;14.318;2023-04-30T03:56:45;4.93;;;3.93;;
15216;SDS011;7711;46.634;14.318;2023-04-30T03:59:13;4.60;;;4.10;;
15216;SDS011;7711;46.634;14.318;2023-04-30T04:01:40;4.23;;;3.83;;
15216;SDS011;7711;46.634;14.318;2023-04-30T04:04:08;6.27;;;3.93;;
15216;SDS011;7711;46.634;14.318;2023-04-30T04:06:35;4.77;;;4.03;;
15216;SDS011;7711;46.634;14.318;2023-04-30T04:09:02;4.60;;;4.00;;
15216;SDS011;7711;46.634;14.318;2023-04-30T04:11:30;5.77;;;4.20;;
15216;SDS011;7711;46.634;14.318;2023-04-30T04:13:58;5.80;;;4.17;;
15216;SDS011;7711;46.634;14.318;2023-04-30T04:16:26;5.43;;;4.37;;
15216;SDS011;7711;46.634;14.318;2023-04-30T04:18:53;4.80;;;4.30;;
15216;SDS011;7711;46.634;14.318;2023-04-30T04:21:20;5.57;;;4.33;;
15216;SDS011;7711;46.634;14.318;2023-04-30T04:23:48;4.60;;;4.20;;
15216;SDS011;7711;46.634;14.318;2023-04-30T04:26:15;4.80;;;3.90;;
15216;SDS011;7711;46.634;14.318;2023-04-30T04:28:43;4.93;;;4.37;;
15216;SDS011;7711;46.634;14.318;2023-04-30T04:31:11;5.30;;;4.10;;
15216;SDS011;7711;46.634;14.318;2023-04-30T04:33:40;4.73;;;4.00;;
15216;SDS011;7711;46.634;14.318;2023-04-30T04:36:07;4.50;;;4.10;;
15216;SDS011;7711;46.634;14.318;2023-04-30T04:38:34;5.97;;;4.30;;
15216;SDS011;7711;46.634;14.318;2023-04-30T04:41:01;4.93;;;4.20;;
15216;SDS011;7711;46.634;14.318;2023-04-30T04:43:28;5.90;;;4.20;;
15216;SDS011;7711;46.634;14.318;2023-04-30T04:45:55;4.43;;;4.03;;
15216;SDS011;7711;46.634;14.318;2023-04-30T04:48:22;4.37;;;3.90;;
15216;SDS011;7711;46.634;14.318;2023-04-30T04:50:50;4.93;;;4.00;;
15216;SDS011;7711;46.634;14.318;2023-04-30T04:53:17;4.00;;;3.70;;
15216;SDS011;7711;46.634;14.318;2023-04-30T04:55:44;5.53;;;4.07;;
15216;SDS011;7711;46.634;14.318;2023-04-30T04:58:11;5.63;;;3.93;;
15216;SDS011;7711;46.634;14.318;2023-04-30T05:00:38;4.23;;;3.60;;
15216;SDS011;7711;46.634;14.318;2023-04-30T05:03:05;6.50;;;3.60;;
15216;SDS011;7711;46.634;14.318;2023-04-30T05:05:33;5.43;;;4.20;;
15216;SDS011;7711;46.634;14.318;2023-04-30T05:08:01;6.30;;;3.90;;
15216;SDS011;7711;46.634;14.318;2023-04-30T05:10:28;4.10;;;3.70;;
15216;SDS011;7711;46.634;14.318;2023-04-30T05:12:55;4.67;;;3.50;;
15216;SDS011;7711;46.634;14.318;2023-04-30T05:15:22;5.00;;;3.20;;
15216;SDS011;7711;46.634;14.318;2023-04-30T05:17:49;5.60;;;4.10;;
15216;SDS011;7711;46.634;14.318;2023-04-30T05:20:16;10.23;;;5.27;;
15216;SDS011;7711;46.634;14.318;2023-04-30T05:22:43;14.43;;;7.73;;
15216;SDS011;7711;46.634;14.318;2023-04-30T05:25:12;16.30;;;8.67;;
15216;SDS011;7711;46.634;14.318;2023-04-30T05:27:39;12.23;;;7.10;;
15216;SDS011;7711;46.634;14.318;2023-04-30T05:30:06;8.53;;;4.43;;
15216;SDS011;7711;46.634;14.318;2023-04-30T05:32:34;5.50;;;4.10;;
15216;SDS011;7711;46.634;14.318;2023-04-30T05:35:01;6.70;;;3.80;;
15216;SDS011;7711;46.634;14.318;2023-04-30T05:37:28;3.63;;;3.27;;
15216;SDS011;7711;46.634;14.318;2023-04-30T05:39:55;3.67;;;3.10;;
15216;SDS011;7711;46.634;14.318;2023-04-30T05:42:24;3.57;;;3.17;;
15216;SDS011;7711;46.634;14.318;2023-04-30T05:44:51;4.53;;;3.23;;
15216;SDS011;7711;46.634;14.318;2023-04-30T05:47:18;4.77;;;3.07;;
15216;SDS011;7711;46.634;14.318;2023-04-30T05:49:45;4.33;;;3.20;;
15216;SDS011;7711;46.634;14.318;2023-04-30T05:52:12;3.27;;;2.57;;
15216;SDS011;7711;46.634;14.318;2023-04-30T05:54:39;4.28;;;2.80;;
15216;SDS011;7711;46.634;14.318;2023-04-30T05:57:06;4.95;;;2.92;;
15216;SDS011;7711;46.634;14.318;2023-04-30T05:59:35;5.80;;;3.07;;
15216;SDS011;7711;46.634;14.318;2023-04-30T06:02:02;5.13;;;2.53;;
15216;SDS011;7711;46.634;14.318;2023-04-30T06:04:29;5.10;;;3.00;;
15216;SDS011;7711;46.634;14.318;2023-04-30T06:06:56;3.40;;;3.10;;
15216;SDS011;7711;46.634;14.318;2023-04-30T06:09:23;3.30;;;3.00;;
15216;SDS011;7711;46.634;14.318;2023-04-30T06:11:50;4.00;;;3.20;;
15216;SDS011;7711;46.634;14.318;2023-04-30T06:14:18;3.60;;;3.30;;
15216;SDS011;7711;46.634;14.318;2023-04-30T06:16:48;3.25;;;2.90;;
15216;SDS011;7711;46.634;14.318;2023-04-30T06:19:15;3.20;;;2.90;;
15216;SDS011;7711;46.634;14.318;2023-04-30T06:21:42;3.75;;;3.05;;
15216;SDS011;7711;46.634;14.318;2023-04-30T06:24:09;6.28;;;3.50;;
15216;SDS011;7711;46.634;14.318;2023-04-30T06:26:36;4.00;;;3.60;;
15216;SDS011;7711;46.634;14.318;2023-04-30T06:29:04;3.75;;;3.45;;
15216;SDS011;7711;46.634;14.318;2023-04-30T06:31:31;3.70;;;3.33;;
15216;SDS011;7711;46.634;14.318;2023-04-30T06:33:59;4.13;;;3.40;;
15216;SDS011;7711;46.634;14.318;2023-04-30T06:36:26;3.85;;;3.47;;
15216;SDS011;7711;46.634;14.318;2023-04-30T06:38:53;3.92;;;3.50;;
15216;SDS011;7711;46.634;14.318;2023-04-30T06:41:20;3.45;;;2.92;;
15216;SDS011;7711;46.634;14.318;2023-04-30T06:43:47;5.10;;;3.15;;
15216;SDS011;7711;46.634;14.318;2023-04-30T06:46:14;4.80;;;3.35;;
15216;SDS011;7711;46.634;14.318;2023-04-30T06:48:41;4.47;;;3.58;;
15216;SDS011;7711;46.634;14.318;2023-04-30T06:51:09;3.50;;;3.13;;
15216;SDS011;7711;46.634;14.318;2023-04-30T06:53:36;4.63;;;3.05;;
15216;SDS011;7711;46.634;14.318;2023-04-30T06:56:03;5.03;;;3.60;;
15216;SDS011;7711;46.634;14.318;2023-04-30T06:58:31;4.32;;;3.53;;
15216;SDS011;7711;46.634;14.318;2023-04-30T07:00:58;3.92;;;3.50;;
15216;SDS011;7711;46.634;14.318;2023-04-30T07:03:25;4.07;;;3.47;;
15216;SDS011;7711;46.634;14.318;2023-04-30T07:05:52;4.60;;;3.38;;
15216;SDS011;7711;46.634;14.318;2023-04-30T07:08:21;4.47;;;3.22;;
15216;SDS011;7711;46.634;14.318;2023-04-30T07:10:48;4.80;;;3.42;;
15216;SDS011;7711;46.634;14.318;2023-04-30T07:13:15;3.60;;;3.22;;
15216;SDS011;7711;46.634;14.318;2023-04-30T07:15:42;5.72;;;3.90;;
15216;SDS011;7711;46.634;14.318;2023-04-30T07:18:10;4.70;;;3.38;;
15216;SDS011;7711;46.634;14.318;2023-04-30T07:20:37;3.88;;;3.58;;
15216;SDS011;7711;46.634;14.318;2023-04-30T07:23:04;4.70;;;3.85;;
15216;SDS011;7711;46.634;14.318;2023-04-30T07:25:33;5.40;;;3.85;;
15216;SDS011;7711;46.634;14.318;2023-04-30T07:28:00;10.60;;;4.32;;
15216;SDS011;7711;46.634;14.318;2023-04-30T07:30:27;4.07;;;3.67;;
15216;SDS011;7711;46.634;14.318;2023-04-30T07:32:55;3.97;;;3.60;;
15216;SDS011;7711;46.634;14.318;2023-04-30T07:35:22;4.00;;;3.60;;
15216;SDS011;7711;46.634;14.318;2023-04-30T07:37:48;4.20;;;3.80;;
15216;SDS011;7711;46.634;14.318;2023-04-30T07:40:15;5.68;;;4.00;;
15216;SDS011;7711;46.634;14.318;2023-04-30T07:42:44;5.80;;;4.30;;
15216;SDS011;7711;46.634;14.318;2023-04-30T07:45:11;4.18;;;3.85;;
15216;SDS011;7711;46.634;14.318;2023-04-30T07:47:38;5.53;;;3.97;;
15216;SDS011;7711;46.634;14.318;2023-04-30T07:50:05;4.45;;;4.05;;
15216;SDS011;7711;46.634;14.318;2023-04-30T07:52:33;4.28;;;3.88;;
15216;SDS011;7711;46.634;14.318;2023-04-30T07:55:00;4.30;;;3.90;;
15216;SDS011;7711;46.634;14.318;2023-04-30T07:57:27;4.25;;;3.85;;
15216;SDS011;7711;46.634;14.318;2023-04-30T07:59:55;3.90;;;3.53;;
15216;SDS011;7711;46.634;14.318;2023-04-30T08:02:22;5.75;;;3.83;;
15216;SDS011;7711;46.634;14.318;2023-04-30T08:04:49;4.20;;;3.80;;
15216;SDS011;7711;46.634;14.318;2023-04-30T08:07:16;4.75;;;3.55;;
15216;SDS011;7711;46.634;14.318;2023-04-30T08:09:45;4.43;;;4.03;;
15216;SDS011;7711;46.634;14.318;2023-04-30T08:12:12;5.72;;;4.53;;
15216;SDS011;7711;46.634;14.318;2023-04-30T08:14:39;12.93;;;8.73;;
15216;SDS011;7711;46.634;14.318;2023-04-30T08:17:07;7.45;;;4.95;;
15216;SDS011;7711;46.634;14.318;2023-04-30T08:19:34;5.55;;;4.00;;
15216;SDS011;7711;46.634;14.318;2023-04-30T08:22:01;3.85;;;3.50;;
15216;SDS011;7711;46.634;14.318;2023-04-30T08:24:28;3.80;;;3.50;;
15216;SDS011;7711;46.634;14.318;2023-04-30T08:26:55;3.67;;;3.38;;
15216;SDS011;7711;46.634;14.318;2023-04-30T08:29:23;3.50;;;3.20;;
15216;SDS011;7711;46.634;14.318;2023-04-30T08:31:50;3.40;;;3.10;;
15216;SDS011;7711;46.634;14.318;2023-04-30T08:34:18;4.15;;;3.00;;
15216;SDS011;7711;46.634;14.318;2023-04-30T08:36:45;4.30;;;2.92;;
15216;SDS011;7711;46.634;14.318;2023-04-30T08:39:12;3.40;;;3.10;;
15216;SDS011;7711;46.634;14.318;2023-04-30T08:41:39;3.90;;;3.50;;
15216;SDS011;7711;46.634;14.318;2023-04-30T08:44:10;4.15;;;3.35;;
15216;SDS011;7711;46.634;14.318;2023-04-30T08:46:37;3.60;;;3.30;;
15216;SDS011;7711;46.634;14.318;2023-04-30T08:49:05;4.43;;;3.33;;
15216;SDS011;7711;46.634;14.318;2023-04-30T08:51:34;4.88;;;2.90;;
15216;SDS011;7711;46.634;14.318;2023-04-30T08:54:02;3.50;;;2.53;;
15216;SDS011;7711;46.634;14.318;2023-04-30T08:56:29;3.05;;;2.85;;
15216;SDS011;7711;46.634;14.318;2023-04-30T08:58:57;4.25;;;2.42;;
15216;SDS011;7711;46.634;14.318;2023-04-30T09:01:24;2.38;;;2.13;;
15216;SDS011;7711;46.634;14.318;2023-04-30T09:03:53;2.50;;;2.25;;
15216;SDS011;7711;46.634;14.318;2023-04-30T09:06:20;3.00;;;2.53;;
15216;SDS011;7711;46.634;14.318;2023-04-30T09:08:48;3.05;;;2.70;;
15216;SDS011;7711;46.634;14.318;2023-04-30T09:11:23;2.70;;;2.50;;
15216;SDS011;7711;46.634;14.318;2023-04-30T09:13:51;3.90;;;2.22;;
15216;SDS011;7711;46.634;14.318;2023-04-30T09:16:22;2.70;;;2.15;;
15216;SDS011;7711;46.634;14.318;2023-04-30T09:18:49;2.20;;;2.00;;
15216;SDS011;7711;46.634;14.318;2023-04-30T09:21:27;2.38;;;2.10;;
15216;SDS011;7711;46.634;14.318;2023-04-30T09:23:58;3.47;;;2.10;;
15216;SDS011;7711;46.634;14.318;2023-04-30T09:26:29;2.50;;;2.30;;
15216;SDS011;7711;46.634;14.318;2023-04-30T09:28:58;2.67;;;2.47;;
15216;SDS011;7711;46.634;14.318;2023-04-30T09:31:26;2.60;;;2.40;;
15216;SDS011;7711;46.634;14.318;2023-04-30T09:33:53;2.80;;;2.40;;
15216;SDS011;7711;46.634;14.318;2023-04-30T09:36:20;2.50;;;2.30;;
15216;SDS011;7711;46.634;14.318;2023-04-30T09:38:47;2.83;;;2.42;;
15216;SDS011;7711;46.634;14.318;2023-04-30T09:41:22;3.10;;;2.22;;
15216;SDS011;7711;46.634;14.318;2023-04-30T09:43:51;2.33;;;2.13;;
15216;SDS011;7711;46.634;14.318;2023-04-30T09:46:18;3.60;;;2.42;;
15216;SDS011;7711;46.634;14.318;2023-04-30T09:48:46;2.83;;;2.60;;
15216;SDS011;7711;46.634;14.318;2023-04-30T09:51:22;2.50;;;2.30;;
15216;SDS011;7711;46.634;14.318;2023-04-30T09:53:49;3.65;;;2.40;;
15216;SDS011;7711;46.634;14.318;2023-04-30T09:56:19;2.40;;;2.20;;
15216;SDS011;7711;46.634;14.318;2023-04-30T09:58:49;2.35;;;2.15;;
15216;SDS011;7711;46.634;14.318;2023-04-30T10:01:18;2.45;;;2.28;;
15216;SDS011;7711;46.634;14.318;2023-04-30T10:03:45;2.75;;;2.35;;
15216;SDS011;7711;46.634;14.318;2023-04-30T10:06:13;2.65;;;2.45;;
15216;SDS011;7711;46.634;14.318;2023-04-30T10:08:42;2.50;;;2.30;;
15216;SDS011;7711;46.634;14.318;2023-04-30T10:11:14;2.58;;;2.28;;
15216;SDS011;7711;46.634;14.318;2023-04-30T10:13:46;2.10;;;1.90;;
15216;SDS011;7711;46.634;14.318;2023-04-30T10:16:22;3.72;;;2.22;;
15216;SDS011;7711;46.634;14.318;2023-04-30T10:18:53;2.30;;;2.10;;
15216;SDS011;7711;46.634;14.318;2023-04-30T10:21:23;2.40;;;2.15;;
15216;SDS011;7711;46.634;14.318;2023-04-30T10:23:52;2.33;;;2.13;;
15216;SDS011;7711;46.634;14.318;2023-04-30T10:26:20;3.42;;;1.90;;
15216;SDS011;7711;46.634;14.318;2023-04-30T10:28:50;2.40;;;2.20;;
15216;SDS011;7711;46.634;14.318;2023-04-30T10:31:20;2.00;;;1.90;;
15216;SDS011;7711;46.634;14.318;2023-04-30T10:33:51;3.00;;;2.38;;
15216;SDS011;7711;46.634;14.318;2023-04-30T10:36:25;2.63;;;2.20;;
15216;SDS011;7711;46.634;14.318;2023-04-30T10:38:58;2.17;;;2.08;;
15216;SDS011;7711;46.634;14.318;2023-04-30T10:41:27;3.05;;;2.35;;
15216;SDS011;7711;46.634;14.318;2023-04-30T10:43:57;1.90;;;1.80;;
15216;SDS011;7711;46.634;14.318;2023-04-30T10:46:26;2.90;;;2.00;;
15216;SDS011;7711;46.634;14.318;2023-04-30T10:48:54;3.15;;;2.00;;
15216;SDS011;7711;46.634;14.318;2023-04-30T10:51:21;2.40;;;2.20;;
15216;SDS011;7711;46.634;14.318;2023-04-30T10:53:49;4.38;;;2.10;;
15216;SDS011;7711;46.634;14.318;2023-04-30T10:56:28;3.28;;;2.25;;
15216;SDS011;7711;46.634;14.318;2023-04-30T10:58:59;1.73;;;1.63;;
15216;SDS011;7711;46.634;14.318;2023-04-30T11:01:27;2.10;;;1.90;;
15216;SDS011;7711;46.634;14.318;2023-04-30T11:04:04;2.50;;;1.88;;
15216;SDS011;7711;46.634;14.318;2023-04-30T11:06:48;3.15;;;2.17;;
15216;SDS011;7711;46.634;14.318;2023-04-30T11:09:23;2.22;;;1.90;;
15216;SDS011;7711;46.634;14.318;2023-04-30T11:12:02;2.90;;;2.08;;
15216;SDS011;7711;46.634;14.318;2023-04-30T11:14:32;2.58;;;2.33;;
15216;SDS011;7711;46.634;14.318;2023-04-30T11:16:59;2.35;;;2.00;;
15216;SDS011;7711;46.634;14.318;2023-04-30T11:19:26;2.17;;;2.05;;
15216;SDS011;7711;46.634;14.318;2023-04-30T11:25:02;2.30;;;2.10;;
15216;SDS011;7711;46.634;14.318;2023-04-30T11:27:31;2.20;;;2.00;;
15216;SDS011;7711;46.634;14.318;2023-04-30T11:30:00;2.58;;;2.05;;
15216;SDS011;7711;46.634;14.318;2023-04-30T11:32:33;2.30;;;2.10;;
15216;SDS011;7711;46.634;14.318;2023-04-30T11:35:01;2.25;;;2.05;;
15216;SDS011;7711;46.634;14.318;2023-04-30T11:37:29;2.20;;;1.95;;
15216;SDS011;7711;46.634;14.318;2023-04-30T11:39:59;4.90;;;2.10;;
15216;SDS011;7711;46.634;14.318;2023-04-30T11:42:27;2.00;;;1.80;;
15216;SDS011;7711;46.634;14.318;2023-04-30T11:45:02;2.00;;;1.90;;
15216;SDS011;7711;46.634;14.318;2023-04-30T11:47:37;2.20;;;2.00;;
15216;SDS011;7711;46.634;14.318;2023-04-30T11:50:06;2.15;;;1.95;;
15216;SDS011;7711;46.634;14.318;2023-04-30T11:52:33;2.30;;;2.10;;
15216;SDS011;7711;46.634;14.318;2023-04-30T11:55:03;2.03;;;1.92;;
15216;SDS011;7711;46.634;14.318;2023-04-30T11:57:38;2.13;;;1.98;;
15216;SDS011;7711;46.634;14.318;2023-04-30T12:00:08;3.35;;;2.55;;
15216;SDS011;7711;46.634;14.318;2023-04-30T12:02:36;2.92;;;2.00;;
15216;SDS011;7711;46.634;14.318;2023-04-30T12:05:04;2.00;;;1.80;;
15216;SDS011;7711;46.634;14.318;2023-04-30T12:07:32;2.30;;;2.10;;
15216;SDS011;7711;46.634;14.318;2023-04-30T12:09:59;2.25;;;2.05;;
15216;SDS011;7711;46.634;14.318;2023-04-30T12:12:27;2.35;;;2.03;;
15216;SDS011;7711;46.634;14.318;2023-04-30T12:14:54;2.28;;;2.10;;
15216;SDS011;7711;46.634;14.318;2023-04-30T12:17:32;2.85;;;2.10;;
15216;SDS011;7711;46.634;14.318;2023-04-30T12:19:59;2.20;;;2.00;;
15216;SDS011;7711;46.634;14.318;2023-04-30T12:22:29;2.08;;;1.98;;
15216;SDS011;7711;46.634;14.318;2023-04-30T12:24:57;2.28;;;2.08;;
15216;SDS011;7711;46.634;14.318;2023-04-30T12:27:25;1.90;;;1.77;;
15216;SDS011;7711;46.634;14.318;2023-04-30T12:29:52;2.35;;;2.10;;
15216;SDS011;7711;46.634;14.318;2023-04-30T12:32:20;1.85;;;1.75;;
15216;SDS011;7711;46.634;14.318;2023-04-30T12:34:48;1.90;;;1.80;;
15216;SDS011;7711;46.634;14.318;2023-04-30T12:37:15;2.17;;;1.92;;
15216;SDS011;7711;46.634;14.318;2023-04-30T12:39:42;2.22;;;1.92;;
15216;SDS011;7711;46.634;14.318;2023-04-30T12:42:10;2.30;;;2.10;;
15216;SDS011;7711;46.634;14.318;2023-04-30T12:44:43;2.45;;;2.05;;
15216;SDS011;7711;46.634;14.318;2023-04-30T12:47:10;1.95;;;1.83;;
15216;SDS011;7711;46.634;14.318;2023-04-30T12:49:38;2.38;;;2.00;;
15216;SDS011;7711;46.634;14.318;2023-04-30T12:52:07;2.38;;;2.17;;
15216;SDS011;7711;46.634;14.318;2023-04-30T12:54:36;3.30;;;2.33;;
15216;SDS011;7711;46.634;14.318;2023-04-30T12:57:04;2.75;;;2.22;;
15216;SDS011;7711;46.634;14.318;2023-04-30T12:59:33;2.00;;;1.90;;
15216;SDS011;7711;46.634;14.318;2023-04-30T13:02:05;2.30;;;2.10;;
15216;SDS011;7711;46.634;14.318;2023-04-30T13:04:33;2.20;;;2.00;;
15216;SDS011;7711;46.634;14.318;2023-04-30T13:07:01;3.38;;;2.13;;
15216;SDS011;7711;46.634;14.318;2023-04-30T13:09:30;2.45;;;1.95;;
15216;SDS011;7711;46.634;14.318;2023-04-30T13:11:58;2.20;;;2.00;;
15216;SDS011;7711;46.634;14.318;2023-04-30T13:14:25;4.13;;;2.00;;
15216;SDS011;7711;46.634;14.318;2023-04-30T13:16:52;2.33;;;1.85;;
15216;SDS011;7711;46.634;14.318;2023-04-30T13:19:19;2.30;;;2.10;;
15216;SDS011;7711;46.634;14.318;2023-04-30T13:21:46;2.28;;;2.15;;
15216;SDS011;7711;46.634;14.318;2023-04-30T13:24:13;2.72;;;2.20;;
15216;SDS011;7711;46.634;14.318;2023-04-30T13:26:43;2.72;;;2.42;;
15216;SDS011;7711;46.634;14.318;2023-04-30T13:29:10;2.30;;;2.10;;
15216;SDS011;7711;46.634;14.318;2023-04-30T13:31:37;2.00;;;1.90;;
15216;SDS011;7711;46.634;14.318;2023-04-30T13:34:04;1.83;;;1.60;;
15216;SDS011;7711;46.634;14.318;2023-04-30T13:36:31;2.00;;;1.90;;
15216;SDS011;7711;46.634;14.318;2023-04-30T13:38:58;3.28;;;1.80;;
15216;SDS011;7711;46.634;14.318;2023-04-30T13:41:25;1.80;;;1.70;;
15216;SDS011;7711;46.634;14.318;2023-04-30T13:43:54;3.03;;;2.00;;
15216;SDS011;7711;46.634;14.318;2023-04-30T13:46:21;2.30;;;2.10;;
15216;SDS011;7711;46.634;14.318;2023-04-30T13:48:48;2.20;;;2.00;;
15216;SDS011;7711;46.634;14.318;2023-04-30T13:51:17;2.15;;;2.05;;
15216;SDS011;7711;46.634;14.318;2023-04-30T13:53:44;3.10;;;2.00;;
15216;SDS011;7711;46.634;14.318;2023-04-30T13:56:11;2.15;;;1.95;;
15216;SDS011;7711;46.634;14.318;2023-04-30T13:58:39;2.10;;;1.90;;
15216;SDS011;7711;46.634;14.318;2023-04-30T14:01:07;2.15;;;1.95;;
15216;SDS011;7711;46.634;14.318;2023-04-30T14:03:34;1.85;;;1.70;;
15216;SDS011;7711;46.634;14.318;2023-04-30T14:06:01;2.10;;;1.90;;
15216;SDS011;7711;46.634;14.318;2023-04-30T14:08:29;2.55;;;1.92;;
15216;SDS011;7711;46.634;14.318;2023-04-30T14:10:57;2.63;;;2.03;;
15216;SDS011;7711;46.634;14.318;2023-04-30T14:13:24;2.15;;;1.95;;
15216;SDS011;7711;46.634;14.318;2023-04-30T14:15:51;1.95;;;1.85;;
15216;SDS011;7711;46.634;14.318;2023-04-30T14:18:21;1.70;;;1.60;;
15216;SDS011;7711;46.634;14.318;2023-04-30T14:20:48;2.30;;;2.10;;
15216;SDS011;7711;46.634;14.318;2023-04-30T14:23:15;2.22;;;1.90;;
15216;SDS011;7711;46.634;14.318;2023-04-30T14:25:42;2.38;;;1.90;;
15216;SDS011;7711;46.634;14.318;2023-04-30T14:28:09;2.10;;;2.00;;
15216;SDS011;7711;46.634;14.318;2023-04-30T14:30:37;2.20;;;1.90;;
15216;SDS011;7711;46.634;14.318;2023-04-30T14:33:04;2.42;;;2.22;;
15216;SDS011;7711;46.634;14.318;2023-04-30T14:35:32;2.30;;;2.10;;
15216;SDS011;7711;46.634;14.318;2023-04-30T14:37:59;2.10;;;2.00;;
15216;SDS011;7711;46.634;14.318;2023-04-30T14:40:26;2.97;;;2.00;;
15216;SDS011;7711;46.634;14.318;2023-04-30T14:42:53;1.98;;;1.88;;
15216;SDS011;7711;46.634;14.318;2023-04-30T14:45:20;2.78;;;2.20;;
15216;SDS011;7711;46.634;14.318;2023-04-30T14:47:47;2.00;;;1.90;;
15216;SDS011;7711;46.634;14.318;2023-04-30T14:50:14;1.90;;;1.80;;
15216;SDS011;7711;46.634;14.318;2023-04-30T14:52:43;3.08;;;2.10;;
15216;SDS011;7711;46.634;14.318;2023-04-30T14:55:11;2.08;;;1.95;;
15216;SDS011;7711;46.634;14.318;2023-04-30T14:57:38;2.28;;;2.08;;